sensor_id;sensor_type;location;lat;lon;timestamp;pressure;altitude;pressure_sealevel;temperature;humidity
5651;BME280;40241;52.684;9.758;2023-02-15T00:00:13;102785.78;;;7.29;65.27
5651;BME280;40241;52.684;9.758;2023-02-15T00:02:39;102775.31;;;7.24;65.65
5651;BME280;40241;52.684;9.758;2023-02-15T00:05:05;102771.78;;;7.23;65.33
5651;BME280;40241;52.684;9.758;2023-02-15T00:07:30;102780.78;;;7.24;65.69
5651;BME280;40241;52.684;9.758;2023-02-15T00:09:55;102784.78;;;7.19;65.36
5651;BME280;40241;52.684;9.758;2023-02-15T00:12:21;102773.03;;;7.19;65.13
5651;BME280;40241;52.684;9.758;2023-02-15T00:14:47;102781.69;;;7.17;65.20
5651;BME280;40241;52.684;9.758;2023-02-15T00:17:12;102779.75;;;7.14;65.43
5651;BME280;40241;52.684;9.758;2023-02-15T00:19:38;102778.34;;;7.06;65.26
5651;BME280;40241;52.684;9.758;2023-02-15T00:22:05;102767.03;;;7.04;65.31
5651;BME280;40241;52.684;9.758;2023-02-15T00:24:30;102767.09;;;7.01;65.16
5651;BME280;40241;52.684;9.758;2023-02-15T00:26:55;102758.19;;;6.97;65.49
5651;BME280;40241;52.684;9.758;2023-02-15T00:29:21;102760.16;;;6.96;65.29
5651;BME280;40241;52.684;9.758;2023-02-15T00:31:46;102758.22;;;6.93;65.09
5651;BME280;40241;52.684;9.758;2023-02-15T00:37:26;102753.22;;;6.88;65.43
5651;BME280;40241;52.684;9.758;2023-02-15T00:39:52;102757.16;;;6.87;65.16
5651;BME280;40241;52.684;9.758;2023-02-15T00:42:17;102749.78;;;6.84;64.90
5651;BME280;40241;52.684;9.758;2023-02-15T00:44:42;102745.91;;;6.81;65.45
5651;BME280;40241;52.684;9.758;2023-02-15T00:47:07;102745.50;;;6.83;65.07
5651;BME280;40241;52.684;9.758;2023-02-15T00:49:33;102742.44;;;6.77;65.23
5651;BME280;40241;52.684;9.758;2023-02-15T00:51:58;102732.75;;;6.73;65.25
5651;BME280;40241;52.684;9.758;2023-02-15T00:54:23;102737.03;;;6.74;65.28
5651;BME280;40241;52.684;9.758;2023-02-15T00:56:49;102733.16;;;6.71;65.42
5651;BME280;40241;52.684;9.758;2023-02-15T00:59:14;102722.66;;;6.70;65.67
5651;BME280;40241;52.684;9.758;2023-02-15T01:01:39;102728.53;;;6.68;65.53
5651;BME280;40241;52.684;9.758;2023-02-15T01:04:05;102744.19;;;6.68;65.61
5651;BME280;40241;52.684;9.758;2023-02-15T01:06:30;102741.44;;;6.68;65.50
5651;BME280;40241;52.684;9.758;2023-02-15T01:08:55;102745.34;;;6.67;65.61
5651;BME280;40241;52.684;9.758;2023-02-15T01:11:22;102738.34;;;6.66;65.65
5651;BME280;40241;52.684;9.758;2023-02-15T01:13:49;102742.69;;;6.63;65.44
5651;BME280;40241;52.684;9.758;2023-02-15T01:16:15;102733.69;;;6.63;65.43
5651;BME280;40241;52.684;9.758;2023-02-15T01:18:40;102732.97;;;6.59;65.40
5651;BME280;40241;52.684;9.758;2023-02-15T01:21:25;102730.78;;;6.50;65.61
5651;BME280;40241;52.684;9.758;2023-02-15T01:23:50;102726.13;;;6.47;65.05
5651;BME280;40241;52.684;9.758;2023-02-15T01:26:16;102724.59;;;6.46;65.57
5651;BME280;40241;52.684;9.758;2023-02-15T01:28:42;102723.81;;;6.46;65.47
5651;BME280;40241;52.684;9.758;2023-02-15T01:31:15;102722.31;;;6.41;65.24
5651;BME280;40241;52.684;9.758;2023-02-15T01:33:41;102717.28;;;6.36;65.09
5651;BME280;40241;52.684;9.758;2023-02-15T01:36:07;102715.75;;;6.35;65.31
5651;BME280;40241;52.684;9.758;2023-02-15T01:38:32;102717.72;;;6.35;64.86
5651;BME280;40241;52.684;9.758;2023-02-15T01:40:58;102723.22;;;6.31;65.26
5651;BME280;40241;52.684;9.758;2023-02-15T01:44:01;102717.88;;;6.24;65.28
5651;BME280;40241;52.684;9.758;2023-02-15T01:49:00;102722.13;;;6.25;64.95
5651;BME280;40241;52.684;9.758;2023-02-15T01:51:29;102716.31;;;6.23;65.08
5651;BME280;40241;52.684;9.758;2023-02-15T01:54:03;102716.72;;;6.22;65.03
5651;BME280;40241;52.684;9.758;2023-02-15T01:56:33;102713.66;;;6.16;65.04
5651;BME280;40241;52.684;9.758;2023-02-15T01:59:04;102706.41;;;6.06;64.78
5651;BME280;40241;52.684;9.758;2023-02-15T02:01:30;102704.88;;;6.01;65.04
5651;BME280;40241;52.684;9.758;2023-02-15T02:06:27;102706.47;;;5.99;65.39
5651;BME280;40241;52.684;9.758;2023-02-15T02:08:54;102695.19;;;5.97;65.34
5651;BME280;40241;52.684;9.758;2023-02-15T02:11:20;102689.38;;;5.95;65.52
5651;BME280;40241;52.684;9.758;2023-02-15T02:13:46;102692.09;;;5.95;65.11
5651;BME280;40241;52.684;9.758;2023-02-15T02:16:23;102693.31;;;5.90;65.21
5651;BME280;40241;52.684;9.758;2023-02-15T02:36:04;102667.84;;;5.67;65.29
5651;BME280;40241;52.684;9.758;2023-02-15T02:44:25;102643.69;;;5.65;65.20
5651;BME280;40241;52.684;9.758;2023-02-15T02:47:02;102645.31;;;5.59;65.23
5651;BME280;40241;52.684;9.758;2023-02-15T02:49:34;102648.09;;;5.56;65.24
5651;BME280;40241;52.684;9.758;2023-02-15T02:52:02;102633.72;;;5.52;65.02
5651;BME280;40241;52.684;9.758;2023-02-15T02:54:28;102639.97;;;5.49;65.49
5651;BME280;40241;52.684;9.758;2023-02-15T02:56:56;102643.91;;;5.48;65.06
5651;BME280;40241;52.684;9.758;2023-02-15T02:59:27;102634.56;;;5.45;65.09
5651;BME280;40241;52.684;9.758;2023-02-15T03:04:33;102635.38;;;5.42;65.18
5651;BME280;40241;52.684;9.758;2023-02-15T03:07:03;102638.09;;;5.42;65.46
5651;BME280;40241;52.684;9.758;2023-02-15T03:09:35;102628.78;;;5.40;65.52
5651;BME280;40241;52.684;9.758;2023-02-15T03:12:10;102631.13;;;5.41;65.54
5651;BME280;40241;52.684;9.758;2023-02-15T03:14:36;102628.03;;;5.39;65.24
5651;BME280;40241;52.684;9.758;2023-02-15T03:17:04;102621.00;;;5.38;65.02
5651;BME280;40241;52.684;9.758;2023-02-15T03:19:33;102617.19;;;5.32;65.06
5651;BME280;40241;52.684;9.758;2023-02-15T03:22:06;102619.97;;;5.28;65.14
5651;BME280;40241;52.684;9.758;2023-02-15T03:25:14;102620.00;;;5.25;64.90
5651;BME280;40241;52.684;9.758;2023-02-15T03:27:36;102627.44;;;5.21;65.51
5651;BME280;40241;52.684;9.758;2023-02-15T03:30:04;102625.13;;;5.19;65.21
5651;BME280;40241;52.684;9.758;2023-02-15T03:32:32;102631.75;;;5.18;65.34
5651;BME280;40241;52.684;9.758;2023-02-15T03:34:59;102631.75;;;5.18;65.78
5651;BME280;40241;52.684;9.758;2023-02-15T03:37:48;102624.78;;;5.17;65.22
5651;BME280;40241;52.684;9.758;2023-02-15T03:40:42;102630.59;;;5.19;65.12
5651;BME280;40241;52.684;9.758;2023-02-15T03:46:23;102621.75;;;5.08;65.39
5651;BME280;40241;52.684;9.758;2023-02-15T03:48:56;102629.19;;;5.04;65.31
5651;BME280;40241;52.684;9.758;2023-02-15T03:51:32;102621.41;;;5.03;65.31
5651;BME280;40241;52.684;9.758;2023-02-15T03:54:03;102620.63;;;5.02;65.56
5651;BME280;40241;52.684;9.758;2023-02-15T03:56:29;102626.06;;;5.02;65.56
5651;BME280;40241;52.684;9.758;2023-02-15T03:58:55;102618.66;;;5.03;65.59
5651;BME280;40241;52.684;9.758;2023-02-15T04:04:42;102616.78;;;5.00;65.86
5651;BME280;40241;52.684;9.758;2023-02-15T04:07:08;102612.53;;;4.95;65.63
5651;BME280;40241;52.684;9.758;2023-02-15T04:09:34;102609.03;;;4.95;65.61
5651;BME280;40241;52.684;9.758;2023-02-15T04:12:18;102608.66;;;4.93;65.65
5651;BME280;40241;52.684;9.758;2023-02-15T04:14:43;102612.91;;;4.94;65.32
5651;BME280;40241;52.684;9.758;2023-02-15T04:17:27;102602.41;;;4.92;65.57
5651;BME280;40241;52.684;9.758;2023-02-15T04:19:52;102595.38;;;4.95;65.21
5651;BME280;40241;52.684;9.758;2023-02-15T04:22:36;102595.38;;;4.95;65.29
5651;BME280;40241;52.684;9.758;2023-02-15T04:25:20;102595.44;;;4.88;65.42
5651;BME280;40241;52.684;9.758;2023-02-15T04:27:51;102589.25;;;4.84;65.48
5651;BME280;40241;52.684;9.758;2023-02-15T04:30:19;102595.50;;;4.84;65.37
5651;BME280;40241;52.684;9.758;2023-02-15T04:32:45;102592.41;;;4.82;65.40
5651;BME280;40241;52.684;9.758;2023-02-15T04:35:11;102593.19;;;4.79;65.51
5651;BME280;40241;52.684;9.758;2023-02-15T04:37:37;102596.34;;;4.74;65.68
5651;BME280;40241;52.684;9.758;2023-02-15T04:40:04;102595.19;;;4.75;65.59
5651;BME280;40241;52.684;9.758;2023-02-15T04:42:30;102591.66;;;4.78;65.59
5651;BME280;40241;52.684;9.758;2023-02-15T04:44:55;102585.44;;;4.74;65.50
5651;BME280;40241;52.684;9.758;2023-02-15T04:47:21;102583.91;;;4.73;65.48
5651;BME280;40241;52.684;9.758;2023-02-15T04:49:46;102575.75;;;4.73;65.42
5651;BME280;40241;52.684;9.758;2023-02-15T04:52:12;102581.19;;;4.73;65.33
5651;BME280;40241;52.684;9.758;2023-02-15T04:54:37;102574.22;;;4.69;65.19
5651;BME280;40241;52.684;9.758;2023-02-15T04:57:04;102573.50;;;4.61;64.95
5651;BME280;40241;52.684;9.758;2023-02-15T04:59:29;102578.97;;;4.61;65.54
5651;BME280;40241;52.684;9.758;2023-02-15T05:01:55;102583.25;;;4.62;65.02
5651;BME280;40241;52.684;9.758;2023-02-15T05:04:20;102586.03;;;4.59;65.14
5651;BME280;40241;52.684;9.758;2023-02-15T05:06:45;102570.47;;;4.55;65.18
5651;BME280;40241;52.684;9.758;2023-02-15T05:09:11;102570.09;;;4.53;65.32
5651;BME280;40241;52.684;9.758;2023-02-15T05:11:37;102565.44;;;4.50;65.38
5651;BME280;40241;52.684;9.758;2023-02-15T05:14:03;102568.16;;;4.54;65.47
5651;BME280;40241;52.684;9.758;2023-02-15T05:16:28;102572.03;;;4.53;65.43
5651;BME280;40241;52.684;9.758;2023-02-15T05:18:53;102571.34;;;4.45;65.19
5651;BME280;40241;52.684;9.758;2023-02-15T05:21:19;102565.13;;;4.41;65.19
5651;BME280;40241;52.684;9.758;2023-02-15T05:23:44;102561.66;;;4.37;65.40
5651;BME280;40241;52.684;9.758;2023-02-15T05:26:11;102557.78;;;4.38;65.60
5651;BME280;40241;52.684;9.758;2023-02-15T05:28:55;102555.78;;;4.42;65.56
5651;BME280;40241;52.684;9.758;2023-02-15T05:31:20;102559.72;;;4.38;65.11
5651;BME280;40241;52.684;9.758;2023-02-15T05:33:46;102549.97;;;4.37;65.13
5651;BME280;40241;52.684;9.758;2023-02-15T05:36:11;102548.03;;;4.37;65.47
5651;BME280;40241;52.684;9.758;2023-02-15T05:38:37;102543.38;;;4.38;65.49
5651;BME280;40241;52.684;9.758;2023-02-15T05:41:04;102544.56;;;4.33;65.02
5651;BME280;40241;52.684;9.758;2023-02-15T05:43:30;102541.47;;;4.31;65.32
5651;BME280;40241;52.684;9.758;2023-02-15T05:45:55;102543.84;;;4.29;65.27
5651;BME280;40241;52.684;9.758;2023-02-15T05:48:22;102543.84;;;4.29;65.61
5651;BME280;40241;52.684;9.758;2023-02-15T05:51:00;102549.28;;;4.29;65.67
5651;BME280;40241;52.684;9.758;2023-02-15T05:53:26;102549.28;;;4.29;65.26
5651;BME280;40241;52.684;9.758;2023-02-15T05:55:51;102559.03;;;4.27;65.26
5651;BME280;40241;52.684;9.758;2023-02-15T05:58:17;102551.63;;;4.27;65.47
5651;BME280;40241;52.684;9.758;2023-02-15T06:00:42;102553.16;;;4.28;65.59
5651;BME280;40241;52.684;9.758;2023-02-15T06:03:08;102554.69;;;4.33;64.96
5651;BME280;40241;52.684;9.758;2023-02-15T06:05:33;102553.94;;;4.32;65.16
5651;BME280;40241;52.684;9.758;2023-02-15T06:07:59;102553.16;;;4.32;65.42
5651;BME280;40241;52.684;9.758;2023-02-15T06:10:24;102549.66;;;4.31;65.13
5651;BME280;40241;52.684;9.758;2023-02-15T06:12:49;102548.88;;;4.31;65.52
5651;BME280;40241;52.684;9.758;2023-02-15T06:15:15;102548.09;;;4.30;65.71
5651;BME280;40241;52.684;9.758;2023-02-15T06:17:41;102546.94;;;4.31;65.42
5651;BME280;40241;52.684;9.758;2023-02-15T06:20:08;102541.09;;;4.29;65.62
5651;BME280;40241;52.684;9.758;2023-02-15T06:22:33;102542.28;;;4.28;65.54
5651;BME280;40241;52.684;9.758;2023-02-15T06:24:59;102541.09;;;4.29;65.45
5651;BME280;40241;52.684;9.758;2023-02-15T06:27:24;102544.25;;;4.28;65.35
5651;BME280;40241;52.684;9.758;2023-02-15T06:29:49;102546.19;;;4.27;65.64
5651;BME280;40241;52.684;9.758;2023-02-15T06:32:15;102544.63;;;4.26;65.50
5651;BME280;40241;52.684;9.758;2023-02-15T06:34:40;102542.31;;;4.25;65.42
5651;BME280;40241;52.684;9.758;2023-02-15T06:37:05;102546.63;;;4.22;65.40
5651;BME280;40241;52.684;9.758;2023-02-15T06:39:33;102548.56;;;4.22;65.57
5651;BME280;40241;52.684;9.758;2023-02-15T06:41:58;102543.53;;;4.20;65.51
5651;BME280;40241;52.684;9.758;2023-02-15T06:44:24;102538.47;;;4.19;65.31
5651;BME280;40241;52.684;9.758;2023-02-15T06:46:49;102542.75;;;4.20;65.45
5651;BME280;40241;52.684;9.758;2023-02-15T06:49:14;102538.47;;;4.19;65.38
5651;BME280;40241;52.684;9.758;2023-02-15T06:51:40;102545.47;;;4.20;65.23
5651;BME280;40241;52.684;9.758;2023-02-15T06:54:05;102541.56;;;4.21;65.20
5651;BME280;40241;52.684;9.758;2023-02-15T06:56:30;102543.16;;;4.18;64.89
5651;BME280;40241;52.684;9.758;2023-02-15T06:58:55;102543.16;;;4.18;65.28
5651;BME280;40241;52.684;9.758;2023-02-15T07:01:21;102537.34;;;4.16;65.20
5651;BME280;40241;52.684;9.758;2023-02-15T07:03:46;102530.69;;;4.17;65.17
5651;BME280;40241;52.684;9.758;2023-02-15T07:06:11;102535.78;;;4.15;65.03
5651;BME280;40241;52.684;9.758;2023-02-15T07:08:38;102543.56;;;4.13;65.16
5651;BME280;40241;52.684;9.758;2023-02-15T07:11:04;102543.97;;;4.12;65.19
5651;BME280;40241;52.684;9.758;2023-02-15T07:13:48;102542.81;;;4.09;65.07
5651;BME280;40241;52.684;9.758;2023-02-15T07:16:14;102546.34;;;4.10;65.41
5651;BME280;40241;52.684;9.758;2023-02-15T07:18:39;102550.22;;;4.12;65.13
5651;BME280;40241;52.684;9.758;2023-02-15T07:21:06;102550.22;;;4.12;65.12
5651;BME280;40241;52.684;9.758;2023-02-15T07:23:38;102549.06;;;4.10;65.27
5651;BME280;40241;52.684;9.758;2023-02-15T07:26:04;102548.28;;;4.09;65.46
5651;BME280;40241;52.684;9.758;2023-02-15T07:28:30;102537.75;;;4.11;65.39
5651;BME280;40241;52.684;9.758;2023-02-15T07:30:56;102542.41;;;4.11;65.42
5651;BME280;40241;52.684;9.758;2023-02-15T07:33:22;102544.31;;;4.17;65.30
5651;BME280;40241;52.684;9.758;2023-02-15T07:35:56;102539.63;;;4.21;65.24
5651;BME280;40241;52.684;9.758;2023-02-15T07:38:26;102543.53;;;4.20;65.35
5651;BME280;40241;52.684;9.758;2023-02-15T07:40:51;102538.03;;;4.24;65.41
5651;BME280;40241;52.684;9.758;2023-02-15T07:43:22;102536.44;;;4.26;65.54
5651;BME280;40241;52.684;9.758;2023-02-15T07:45:47;102544.63;;;4.26;65.49
5651;BME280;40241;52.684;9.758;2023-02-15T07:48:12;102546.19;;;4.27;65.54
5651;BME280;40241;52.684;9.758;2023-02-15T07:50:38;102546.16;;;4.31;65.17
5651;BME280;40241;52.684;9.758;2023-02-15T07:53:03;102540.69;;;4.31;65.42
5651;BME280;40241;52.684;9.758;2023-02-15T07:55:30;102538.75;;;4.31;65.42
5651;BME280;40241;52.684;9.758;2023-02-15T07:57:55;102540.28;;;4.36;65.59
5651;BME280;40241;52.684;9.758;2023-02-15T08:00:22;102520.41;;;4.39;65.53
5651;BME280;40241;52.684;9.758;2023-02-15T08:02:55;102538.28;;;4.40;65.12
5651;BME280;40241;52.684;9.758;2023-02-15T08:05:40;102522.72;;;4.37;65.64
5651;BME280;40241;52.684;9.758;2023-02-15T08:08:06;102508.69;;;4.42;65.41
5651;BME280;40241;52.684;9.758;2023-02-15T08:10:32;102498.50;;;4.46;65.67
5651;BME280;40241;52.684;9.758;2023-02-15T08:13:16;102502.38;;;4.48;65.56
5651;BME280;40241;52.684;9.758;2023-02-15T08:15:50;102502.72;;;4.54;65.62
5651;BME280;40241;52.684;9.758;2023-02-15T08:18:16;102494.09;;;4.59;65.51
5651;BME280;40241;52.684;9.758;2023-02-15T08:20:41;102497.53;;;4.63;65.58
5651;BME280;40241;52.684;9.758;2023-02-15T08:23:07;102497.91;;;4.69;65.63
5651;BME280;40241;52.684;9.758;2023-02-15T08:25:32;102493.16;;;4.73;65.41
5651;BME280;40241;52.684;9.758;2023-02-15T08:27:58;102493.13;;;4.76;65.47
5651;BME280;40241;52.684;9.758;2023-02-15T08:30:23;102483.34;;;4.79;65.57
5651;BME280;40241;52.684;9.758;2023-02-15T08:32:48;102482.19;;;4.80;65.45
5651;BME280;40241;52.684;9.758;2023-02-15T08:35:14;102481.00;;;4.81;65.27
5651;BME280;40241;52.684;9.758;2023-02-15T08:37:39;102475.16;;;4.82;65.46
5651;BME280;40241;52.684;9.758;2023-02-15T08:40:05;102482.13;;;4.83;65.71
5651;BME280;40241;52.684;9.758;2023-02-15T08:42:33;102476.25;;;4.88;65.77
5651;BME280;40241;52.684;9.758;2023-02-15T08:44:58;102480.41;;;4.96;65.77
5651;BME280;40241;52.684;9.758;2023-02-15T08:47:23;102482.34;;;4.99;65.78
5651;BME280;40241;52.684;9.758;2023-02-15T08:49:49;102487.75;;;5.03;65.24
5651;BME280;40241;52.684;9.758;2023-02-15T08:52:14;102481.91;;;5.04;65.83
5651;BME280;40241;52.684;9.758;2023-02-15T08:54:39;102482.19;;;5.10;65.83
5651;BME280;40241;52.684;9.758;2023-02-15T08:57:04;102478.31;;;5.11;65.59
5651;BME280;40241;52.684;9.758;2023-02-15T08:59:32;102478.25;;;5.14;65.66
5651;BME280;40241;52.684;9.758;2023-02-15T09:01:57;102475.16;;;5.12;65.75
5651;BME280;40241;52.684;9.758;2023-02-15T09:04:22;102478.59;;;5.16;65.50
5651;BME280;40241;52.684;9.758;2023-02-15T09:06:49;102488.66;;;5.23;65.57
5651;BME280;40241;52.684;9.758;2023-02-15T09:09:16;102482.75;;;5.28;65.58
5651;BME280;40241;52.684;9.758;2023-02-15T09:11:43;102479.59;;;5.29;65.85
5651;BME280;40241;52.684;9.758;2023-02-15T09:14:14;102477.22;;;5.31;65.50
5651;BME280;40241;52.684;9.758;2023-02-15T09:16:42;102477.19;;;5.35;65.29
5651;BME280;40241;52.684;9.758;2023-02-15T09:19:09;102472.44;;;5.39;65.38
5651;BME280;40241;52.684;9.758;2023-02-15T09:21:36;102479.84;;;5.39;65.37
5651;BME280;40241;52.684;9.758;2023-02-15T09:24:05;102474.31;;;5.46;65.62
5651;BME280;40241;52.684;9.758;2023-02-15T09:26:33;102477.69;;;5.53;65.65
5651;BME280;40241;52.684;9.758;2023-02-15T09:29:00;102469.75;;;5.62;65.40
5651;BME280;40241;52.684;9.758;2023-02-15T09:31:30;102474.34;;;5.69;65.73
5651;BME280;40241;52.684;9.758;2023-02-15T09:33:56;102464.13;;;5.73;65.68
5651;BME280;40241;52.684;9.758;2023-02-15T09:36:26;102464.84;;;5.77;65.61
5651;BME280;40241;52.684;9.758;2023-02-15T10:03:08;102457.22;;;6.57;66.27
5651;BME280;40241;52.684;9.758;2023-02-15T10:06:05;102452.28;;;6.68;66.14
5651;BME280;40241;52.684;9.758;2023-02-15T10:20:07;102457.50;;;7.34;65.96
5651;BME280;40241;52.684;9.758;2023-02-15T10:30:56;102453.06;;;7.89;66.07
5651;BME280;40241;52.684;9.758;2023-02-15T10:39:29;102449.59;;;8.17;66.33
5651;BME280;40241;52.684;9.758;2023-02-15T10:50:35;102443.59;;;8.38;65.63
5651;BME280;40241;52.684;9.758;2023-02-15T10:53:40;102441.09;;;8.44;65.73
5651;BME280;40241;52.684;9.758;2023-02-15T11:01:49;102432.50;;;8.70;65.78
5651;BME280;40241;52.684;9.758;2023-02-15T11:04:40;102431.41;;;8.80;65.64
5651;BME280;40241;52.684;9.758;2023-02-15T11:07:16;102424.53;;;8.88;65.80
5651;BME280;40241;52.684;9.758;2023-02-15T11:10:37;102425.41;;;8.98;65.74
5651;BME280;40241;52.684;9.758;2023-02-15T11:12:36;102426.63;;;9.10;65.58
5651;BME280;40241;52.684;9.758;2023-02-15T11:15:14;102420.81;;;9.20;65.38
5651;BME280;40241;52.684;9.758;2023-02-15T11:17:45;102420.91;;;9.29;65.55
5651;BME280;40241;52.684;9.758;2023-02-15T11:22:47;102412.78;;;9.51;65.41
5651;BME280;40241;52.684;9.758;2023-02-15T11:25:18;102411.56;;;9.64;65.32
5651;BME280;40241;52.684;9.758;2023-02-15T11:27:46;102420.53;;;9.77;65.35
5651;BME280;40241;52.684;9.758;2023-02-15T11:30:15;102410.72;;;9.89;65.04
5651;BME280;40241;52.684;9.758;2023-02-15T11:32:43;102412.78;;;9.98;64.87
5651;BME280;40241;52.684;9.758;2023-02-15T11:37:49;102404.44;;;10.23;64.74
5651;BME280;40241;52.684;9.758;2023-02-15T11:40:48;102396.66;;;10.43;63.99
5651;BME280;40241;52.684;9.758;2023-02-15T11:43:26;102413.47;;;10.67;64.04
5651;BME280;40241;52.684;9.758;2023-02-15T11:45:53;102390.63;;;10.88;64.10
5651;BME280;40241;52.684;9.758;2023-02-15T11:48:19;102389.94;;;11.05;64.02
5651;BME280;40241;52.684;9.758;2023-02-15T11:50:45;102385.75;;;11.31;63.60
5651;BME280;40241;52.684;9.758;2023-02-15T11:53:32;102395.22;;;11.70;62.50
5651;BME280;40241;52.684;9.758;2023-02-15T11:55:58;102383.59;;;12.02;62.89
5651;BME280;40241;52.684;9.758;2023-02-15T11:58:41;102379.72;;;12.36;61.62
5651;BME280;40241;52.684;9.758;2023-02-15T12:01:29;102391.34;;;12.58;59.64
5651;BME280;40241;52.684;9.758;2023-02-15T12:06:36;102374.31;;;13.11;61.55
5651;BME280;40241;52.684;9.758;2023-02-15T12:09:46;102373.75;;;13.30;58.81
5651;BME280;40241;52.684;9.758;2023-02-15T12:12:29;102374.06;;;13.56;58.68
5651;BME280;40241;52.684;9.758;2023-02-15T12:15:06;102362.41;;;13.76;60.31
5651;BME280;40241;52.684;9.758;2023-02-15T12:17:54;102372.56;;;13.93;60.12
5651;BME280;40241;52.684;9.758;2023-02-15T12:20:29;102353.97;;;14.08;58.60
5651;BME280;40241;52.684;9.758;2023-02-15T12:23:15;102354.41;;;14.31;57.37
5651;BME280;40241;52.684;9.758;2023-02-15T12:25:49;102349.53;;;14.55;57.92
5651;BME280;40241;52.684;9.758;2023-02-15T12:28:25;102352.47;;;14.66;57.71
5651;BME280;40241;52.684;9.758;2023-02-15T12:30:52;102353.72;;;14.79;58.79
5651;BME280;40241;52.684;9.758;2023-02-15T12:33:30;102346.22;;;15.00;56.63
5651;BME280;40241;52.684;9.758;2023-02-15T12:36:14;102345.91;;;15.13;55.86
5651;BME280;40241;52.684;9.758;2023-02-15T12:38:40;102351.59;;;15.24;57.91
5651;BME280;40241;52.684;9.758;2023-02-15T12:41:25;102342.16;;;15.36;55.15
5651;BME280;40241;52.684;9.758;2023-02-15T12:44:17;102342.06;;;15.45;55.47
5651;BME280;40241;52.684;9.758;2023-02-15T12:49:40;102334.44;;;15.60;57.07
5651;BME280;40241;52.684;9.758;2023-02-15T12:52:23;102326.13;;;15.60;54.49
5651;BME280;40241;52.684;9.758;2023-02-15T12:54:49;102331.88;;;15.77;57.08
5651;BME280;40241;52.684;9.758;2023-02-15T12:57:30;102338.84;;;15.92;54.41
5651;BME280;40241;52.684;9.758;2023-02-15T13:00:04;102338.94;;;16.03;56.37
5651;BME280;40241;52.684;9.758;2023-02-15T13:02:37;102323.94;;;16.15;55.00
5651;BME280;40241;52.684;9.758;2023-02-15T13:05:24;102322.31;;;16.29;53.48
5651;BME280;40241;52.684;9.758;2023-02-15T13:07:57;102322.16;;;16.43;54.40
5651;BME280;40241;52.684;9.758;2023-02-15T13:10:29;102320.00;;;16.53;54.37
5651;BME280;40241;52.684;9.758;2023-02-15T13:12:55;102304.13;;;16.59;55.28
5651;BME280;40241;52.684;9.758;2023-02-15T13:15:40;102304.66;;;16.58;52.40
5651;BME280;40241;52.684;9.758;2023-02-15T13:18:14;102300.16;;;16.66;53.91
5651;BME280;40241;52.684;9.758;2023-02-15T13:20:42;102310.06;;;16.78;54.90
5651;BME280;40241;52.684;9.758;2023-02-15T13:23:27;102298.16;;;16.72;52.15
5651;BME280;40241;52.684;9.758;2023-02-15T13:25:55;102299.69;;;16.73;54.73
5651;BME280;40241;52.684;9.758;2023-02-15T13:28:24;102294.13;;;16.73;53.69
5651;BME280;40241;52.684;9.758;2023-02-15T13:30:52;102279.22;;;16.76;54.52
5651;BME280;40241;52.684;9.758;2023-02-15T13:33:33;102282.00;;;16.76;50.71
5651;BME280;40241;52.684;9.758;2023-02-15T13:36:21;102282.94;;;16.62;51.46
5651;BME280;40241;52.684;9.758;2023-02-15T13:52:20;102261.94;;;16.55;52.30
5651;BME280;40241;52.684;9.758;2023-02-15T14:05:41;102254.13;;;17.07;50.82
5651;BME280;40241;52.684;9.758;2023-02-15T14:13:33;102258.59;;;16.88;52.88
5651;BME280;40241;52.684;9.758;2023-02-15T14:16:12;102259.78;;;16.76;52.18
5651;BME280;40241;52.684;9.758;2023-02-15T14:21:28;102250.31;;;16.57;50.23
5651;BME280;40241;52.684;9.758;2023-02-15T14:27:07;102235.16;;;16.26;50.89
5651;BME280;40241;52.684;9.758;2023-02-15T14:32:17;102234.53;;;16.11;52.07
5651;BME280;40241;52.684;9.758;2023-02-15T14:34:55;102239.75;;;16.04;51.31
5651;BME280;40241;52.684;9.758;2023-02-15T14:43:19;102233.44;;;15.72;52.59
5651;BME280;40241;52.684;9.758;2023-02-15T14:46:18;102232.03;;;15.62;51.71
5651;BME280;40241;52.684;9.758;2023-02-15T14:48:52;102230.47;;;15.55;52.79
5651;BME280;40241;52.684;9.758;2023-02-15T14:54:09;102236.09;;;15.41;53.48
5651;BME280;40241;52.684;9.758;2023-02-15T14:56:36;102234.72;;;15.31;53.54
5651;BME280;40241;52.684;9.758;2023-02-15T14:59:16;102242.78;;;15.29;52.85
5651;BME280;40241;52.684;9.758;2023-02-15T15:01:52;102237.63;;;15.22;52.41
5651;BME280;40241;52.684;9.758;2023-02-15T15:07:34;102251.63;;;15.13;52.88
5651;BME280;40241;52.684;9.758;2023-02-15T15:12:51;102234.09;;;15.01;54.01
5651;BME280;40241;52.684;9.758;2023-02-15T15:26:22;102245.13;;;14.61;52.95
5651;BME280;40241;52.684;9.758;2023-02-15T15:31:24;102239.63;;;14.46;54.28
5651;BME280;40241;52.684;9.758;2023-02-15T15:37:08;102227.22;;;14.27;54.10
5651;BME280;40241;52.684;9.758;2023-02-15T15:40:10;102234.47;;;14.10;53.91
5651;BME280;40241;52.684;9.758;2023-02-15T15:48:29;102218.84;;;13.78;53.41
5651;BME280;40241;52.684;9.758;2023-02-15T15:51:01;102226.16;;;13.66;54.45
5651;BME280;40241;52.684;9.758;2023-02-15T15:53:29;102220.22;;;13.59;54.48
5651;BME280;40241;52.684;9.758;2023-02-15T15:56:05;102219.56;;;13.49;54.17
5651;BME280;40241;52.684;9.758;2023-02-15T15:58:33;102222.78;;;13.33;54.97
5651;BME280;40241;52.684;9.758;2023-02-15T16:01:09;102217.22;;;13.18;54.72
5651;BME280;40241;52.684;9.758;2023-02-15T16:03:36;102223.72;;;13.06;55.47
5651;BME280;40241;52.684;9.758;2023-02-15T16:06:02;102221.31;;;12.99;55.45
5651;BME280;40241;52.684;9.758;2023-02-15T16:08:36;102218.41;;;12.94;55.23
5651;BME280;40241;52.684;9.758;2023-02-15T16:11:23;102215.41;;;12.82;54.79
5651;BME280;40241;52.684;9.758;2023-02-15T16:13:49;102214.09;;;12.69;55.48
5651;BME280;40241;52.684;9.758;2023-02-15T16:16:24;102213.56;;;12.56;55.35
5651;BME280;40241;52.684;9.758;2023-02-15T16:18:53;102209.50;;;12.42;55.97
5651;BME280;40241;52.684;9.758;2023-02-15T16:21:23;102209.69;;;12.30;56.24
5651;BME280;40241;52.684;9.758;2023-02-15T16:27:39;102197.53;;;12.03;55.89
5651;BME280;40241;52.684;9.758;2023-02-15T16:33:07;102202.16;;;11.88;56.21
5651;BME280;40241;52.684;9.758;2023-02-15T16:35:34;102205.72;;;11.80;56.33
5651;BME280;40241;52.684;9.758;2023-02-15T16:38:01;102206.06;;;11.73;56.33
5651;BME280;40241;52.684;9.758;2023-02-15T16:40:55;102200.22;;;11.62;56.24